createdAt,value
2018-04-19T00:01:15.721Z,93.30
2018-04-19T00:03:43.237Z,93.30
2018-04-19T00:06:10.735Z,93.40
2018-04-19T00:08:39.057Z,93.50
2018-04-19T00:16:47.645Z,92.70
2018-04-19T00:19:15.169Z,92.30
2018-04-19T00:21:42.658Z,91.60
2018-04-19T00:24:10.945Z,91.20
2018-04-19T00:26:39.195Z,91.00
2018-04-19T00:29:06.714Z,91.00
2018-04-19T00:31:34.962Z,91.00
2018-04-19T00:34:02.486Z,91.00
2018-04-19T00:36:29.969Z,91.10
2018-04-19T00:38:59.115Z,91.10
2018-04-19T00:41:26.598Z,91.40
2018-04-19T00:43:54.122Z,91.60
2018-04-19T00:46:21.608Z,91.80
2018-04-19T00:48:49.123Z,91.70
2018-04-19T00:51:16.605Z,91.80
2018-04-19T00:53:44.922Z,91.80
2018-04-19T00:56:12.416Z,91.80
2018-04-19T00:58:39.898Z,91.70
2018-04-19T01:01:07.411Z,91.80
2018-04-19T01:03:34.906Z,91.90
2018-04-19T01:06:02.422Z,92.00
2018-04-19T01:08:29.902Z,92.10
2018-04-19T01:10:57.424Z,92.00
2018-04-19T01:13:24.902Z,91.90
2018-04-19T01:15:52.415Z,91.70
2018-04-19T01:18:19.905Z,91.50
2018-04-19T01:20:48.185Z,91.10
2018-04-19T01:23:15.761Z,91.10
2018-04-19T01:25:44.565Z,91.30
2018-04-19T01:28:12.809Z,91.40
2018-04-19T01:30:40.297Z,91.40
2018-04-19T01:33:07.809Z,91.80
2018-04-19T01:38:52.682Z,93.90
2018-04-19T01:41:20.193Z,93.90
2018-04-19T01:43:48.433Z,95.40
2018-04-19T01:46:15.947Z,95.50
2018-04-19T01:48:44.189Z,96.90
2018-04-19T01:51:11.738Z,96.90
2018-04-19T01:53:39.222Z,97.60
2018-04-19T01:56:06.754Z,98.60
2018-04-19T01:58:35.018Z,99.90
2018-04-19T02:01:02.501Z,99.90
2018-04-19T02:03:30.009Z,99.90
2018-04-19T02:05:57.490Z,99.90
2018-04-19T02:08:25.006Z,99.90
2018-04-19T02:10:52.485Z,99.90
2018-04-19T02:13:20.769Z,99.90
2018-04-19T02:15:48.245Z,99.90
2018-04-19T02:18:15.757Z,99.90
2018-04-19T02:20:43.243Z,99.90
2018-04-19T02:23:10.756Z,99.90
2018-04-19T02:25:38.238Z,99.90
2018-04-19T02:28:06.520Z,99.90
2018-04-19T02:30:34.766Z,99.90
2018-04-19T02:33:02.285Z,99.90
2018-04-19T02:35:30.541Z,99.90
2018-04-19T02:37:58.060Z,99.90
2018-04-19T02:40:25.545Z,99.90
2018-04-19T02:42:53.064Z,99.90
2018-04-19T02:45:20.538Z,99.90
2018-04-19T02:47:48.057Z,99.90
2018-04-19T02:50:15.554Z,99.90
2018-04-19T02:52:43.067Z,99.90
2018-04-19T02:55:11.305Z,99.90
2018-04-19T02:57:38.841Z,99.90
2018-04-19T03:00:07.086Z,99.90
2018-04-19T03:02:34.568Z,99.90
2018-04-19T03:05:02.102Z,99.90
2018-04-19T03:07:29.585Z,99.90
2018-04-19T03:09:57.097Z,99.90
2018-04-19T03:12:24.592Z,99.90
2018-04-19T03:14:52.113Z,99.90
2018-04-19T03:17:19.623Z,99.90
2018-04-19T03:19:47.138Z,99.90
2018-04-19T03:22:14.626Z,99.90
2018-04-19T03:24:42.150Z,99.90
2018-04-19T03:27:09.628Z,99.90
2018-04-19T03:29:37.119Z,99.90
2018-04-19T03:32:04.598Z,99.90
2018-04-19T03:34:32.113Z,99.90
2018-04-19T03:37:00.361Z,99.90
2018-04-19T03:39:27.873Z,99.90
2018-04-19T03:41:56.113Z,99.90
2018-04-19T03:44:23.600Z,99.90
2018-04-19T03:46:51.126Z,99.90
2018-04-19T03:49:19.001Z,99.90
2018-04-19T03:51:46.537Z,99.90
2018-04-19T03:54:14.795Z,99.90
2018-04-19T03:56:42.313Z,99.80
2018-04-19T03:59:10.581Z,99.70
2018-04-19T04:01:38.097Z,99.70
2018-04-19T04:04:05.573Z,99.90
2018-04-19T04:06:33.082Z,99.40
2018-04-19T04:09:00.577Z,98.70
2018-04-19T04:11:28.873Z,98.50
2018-04-19T04:13:56.359Z,98.50
2018-04-19T04:16:36.669Z,98.20
2018-04-19T04:19:16.026Z,98.20
2018-04-19T04:21:55.593Z,98.20
2018-04-19T04:24:23.078Z,98.20
2018-04-19T04:26:50.597Z,98.10
2018-04-19T04:29:18.073Z,98.20
2018-04-19T04:31:45.606Z,97.80
2018-04-19T04:34:13.090Z,97.80
2018-04-19T04:36:41.391Z,97.70
2018-04-19T04:39:08.885Z,97.70
2018-04-19T04:41:36.438Z,97.40
2018-04-19T04:44:03.955Z,97.20
2018-04-19T04:46:31.441Z,96.80
2018-04-19T04:48:58.976Z,96.50
2018-04-19T04:51:26.453Z,96.30
2018-04-19T04:53:53.988Z,96.20
2018-04-19T04:56:21.487Z,95.80
2018-04-19T04:58:49.001Z,95.60
2018-04-19T05:01:16.489Z,95.60
2018-04-19T05:03:44.769Z,95.40
2018-04-19T05:06:13.028Z,95.60
2018-04-19T05:08:40.547Z,95.50
2018-04-19T05:11:08.809Z,95.30
2018-04-19T05:13:36.340Z,95.30
2018-04-19T05:16:03.825Z,95.20
2018-04-19T05:18:31.351Z,95.20
2018-04-19T05:20:59.594Z,95.10
2018-04-19T05:23:27.113Z,95.10
2018-04-19T05:25:54.594Z,94.90
2018-04-19T05:28:22.122Z,94.80
2018-04-19T05:30:49.610Z,94.80
2018-04-19T05:33:17.951Z,94.30
2018-04-19T05:35:45.433Z,94.30
2018-04-19T05:38:13.701Z,93.90
2018-04-19T05:40:41.262Z,93.90
2018-04-19T05:43:08.741Z,93.70
2018-04-19T05:45:36.257Z,93.70
2018-04-19T05:48:03.744Z,93.40
2018-04-19T05:50:31.266Z,93.30
2018-04-19T05:52:58.756Z,93.20
2018-04-19T05:55:26.384Z,92.90
2018-04-19T05:57:53.878Z,92.50
2018-04-19T06:00:21.401Z,92.40
2018-04-19T06:02:48.885Z,92.10
2018-04-19T06:05:17.164Z,91.50
2018-04-19T06:07:45.413Z,91.40
2018-04-19T06:10:12.926Z,91.30
2018-04-19T06:12:41.179Z,90.90
2018-04-19T06:15:08.690Z,90.90
2018-04-19T06:17:36.937Z,90.30
2018-04-19T06:20:04.430Z,90.30
2018-04-19T06:22:31.950Z,89.80
2018-04-19T06:24:59.435Z,89.20
2018-04-19T06:27:26.953Z,88.30
2018-04-19T06:29:54.435Z,87.00
2018-04-19T06:32:22.713Z,66.10
2018-04-19T06:34:50.244Z,65.90
2018-04-19T06:37:17.789Z,52.80
2018-04-19T06:39:45.290Z,47.10
2018-04-19T06:42:12.806Z,41.90
2018-04-19T06:44:40.296Z,39.50
2018-04-19T06:47:07.830Z,37.50
2018-04-19T06:49:35.320Z,35.80
2018-04-19T06:52:03.577Z,34.20
2018-04-19T06:54:31.105Z,34.70
2018-04-19T06:56:58.590Z,34.70
2018-04-19T06:59:26.109Z,34.60
2018-04-19T07:01:53.597Z,33.90
2018-04-19T07:04:21.106Z,33.80
2018-04-19T07:06:48.596Z,33.10
2018-04-19T07:09:16.139Z,32.90
2018-04-19T07:11:43.628Z,32.30
2018-04-19T07:14:11.208Z,30.40
2018-04-19T07:16:38.691Z,30.10
2018-04-19T07:19:06.208Z,30.00
2018-04-19T07:21:34.441Z,29.90
2018-04-19T07:24:01.982Z,29.90
2018-04-19T07:26:29.469Z,29.60
2018-04-19T07:28:56.953Z,30.20
2018-04-19T07:31:24.460Z,29.70
2018-04-19T07:33:51.954Z,29.20
2018-04-19T07:36:19.465Z,28.90
2018-04-19T07:38:46.957Z,29.20
2018-04-19T07:41:14.482Z,28.60
2018-04-19T07:43:41.958Z,29.30
2018-04-19T07:46:09.483Z,29.50
2018-04-19T07:48:36.969Z,29.10
2018-04-19T07:51:05.249Z,28.70
2018-04-19T07:53:32.726Z,28.70
2018-04-19T07:56:00.255Z,29.30
2018-04-19T07:58:27.739Z,28.80
2018-04-19T08:00:55.262Z,28.70
2018-04-19T08:03:22.749Z,27.70
2018-04-19T08:05:50.267Z,27.90
2018-04-19T08:08:17.750Z,28.20
2018-04-19T08:10:46.054Z,28.30
2018-04-19T08:13:14.313Z,28.60
2018-04-19T08:15:41.802Z,28.60
2018-04-19T08:18:10.085Z,27.20
2018-04-19T08:20:37.564Z,27.20
2018-04-19T08:23:05.097Z,27.60
2018-04-19T08:25:32.611Z,28.20
2018-04-19T08:28:00.897Z,26.70
2018-04-19T08:30:29.146Z,27.20
2018-04-19T08:32:56.654Z,27.20
2018-04-19T08:35:24.937Z,27.90
2018-04-19T08:37:52.427Z,27.90
2018-04-19T08:40:20.678Z,27.30
2018-04-19T08:42:48.194Z,27.30
2018-04-19T08:45:15.674Z,27.30
2018-04-19T08:47:43.185Z,26.40
2018-04-19T08:50:10.743Z,27.30
2018-04-19T08:52:38.237Z,26.30
2018-04-19T08:55:05.714Z,25.90
2018-04-19T08:57:33.195Z,25.20
2018-04-19T09:00:00.717Z,25.30
2018-04-19T09:02:28.201Z,25.20
2018-04-19T09:04:55.712Z,25.20
2018-04-19T09:07:23.213Z,25.30
2018-04-19T09:09:50.725Z,25.60
2018-04-19T09:12:18.207Z,26.50
2018-04-19T09:14:45.725Z,26.00
2018-04-19T09:17:13.209Z,24.90
2018-04-19T09:19:40.725Z,23.90
2018-04-19T09:22:08.205Z,23.40
2018-04-19T09:24:35.725Z,24.80
2018-04-19T09:27:03.216Z,24.40
2018-04-19T09:29:30.726Z,23.80
2018-04-19T09:31:58.981Z,23.20
2018-04-19T09:34:26.462Z,23.70
2018-04-19T09:36:53.974Z,24.20
2018-04-19T09:39:21.515Z,24.20
2018-04-19T09:41:49.029Z,23.80
2018-04-19T09:44:16.517Z,24.30
2018-04-19T09:46:44.037Z,24.20
2018-04-19T09:49:12.287Z,24.80
2018-04-19T09:51:39.822Z,24.60
2018-04-19T09:54:07.386Z,25.20
2018-04-19T09:56:34.835Z,24.20
2018-04-19T09:59:13.081Z,23.20
2018-04-19T10:01:47.066Z,24.10
2018-04-19T10:04:14.563Z,24.10
2018-04-19T10:06:42.845Z,23.50
2018-04-19T10:09:10.339Z,23.50
2018-04-19T10:11:37.856Z,23.20
2018-04-19T10:14:05.337Z,23.50
2018-04-19T10:16:32.845Z,22.90
2018-04-19T10:19:01.089Z,21.90
2018-04-19T10:21:29.448Z,21.70
2018-04-19T10:23:56.883Z,21.70
2018-04-19T10:26:24.361Z,20.90
2018-04-19T10:28:52.648Z,23.70
2018-04-19T10:31:20.900Z,23.60
2018-04-19T10:33:48.404Z,23.30
2018-04-19T10:36:16.666Z,22.60
2018-04-19T10:38:44.190Z,22.60
2018-04-19T10:41:11.771Z,22.70
2018-04-19T10:43:40.046Z,23.70
2018-04-19T10:46:08.289Z,23.60
2018-04-19T10:48:35.806Z,23.60
2018-04-19T10:51:03.293Z,23.70
2018-04-19T10:53:30.823Z,22.60
2018-04-19T10:55:58.308Z,22.60
2018-04-19T10:58:26.595Z,23.90
2018-04-19T11:00:54.855Z,25.50
2018-04-19T11:03:22.386Z,25.50
2018-04-19T11:05:49.953Z,26.40
2018-04-19T11:08:17.478Z,26.90
2018-04-19T11:10:44.981Z,27.30
2018-04-19T11:13:12.465Z,28.00
2018-04-19T11:15:40.009Z,27.60
2018-04-19T11:18:07.494Z,28.90
2018-04-19T11:20:35.784Z,26.90
2018-04-19T11:23:03.282Z,26.80
2018-04-19T11:25:30.807Z,27.90
2018-04-19T11:27:58.282Z,28.00
2018-04-19T11:30:25.791Z,28.20
2018-04-19T11:32:53.269Z,28.40
2018-04-19T11:35:20.805Z,29.00
2018-04-19T11:37:49.057Z,29.00
2018-04-19T11:40:16.565Z,28.90
2018-04-19T11:42:44.815Z,26.40
2018-04-19T11:45:12.326Z,26.30
2018-04-19T11:47:40.582Z,27.20
2018-04-19T11:50:08.105Z,27.20
2018-04-19T11:52:35.590Z,28.00
2018-04-19T11:55:03.105Z,27.80
2018-04-19T11:57:30.586Z,28.30
2018-04-19T11:59:58.144Z,29.30
2018-04-19T12:02:25.631Z,26.60
2018-04-19T12:04:53.113Z,26.30
2018-04-19T12:07:21.399Z,28.00
2018-04-19T12:09:48.875Z,28.00
2018-04-19T12:12:17.167Z,27.60
2018-04-19T12:14:45.435Z,28.00
2018-04-19T12:17:12.965Z,28.00
2018-04-19T12:19:40.452Z,27.60
2018-04-19T12:22:07.961Z,27.70
2018-04-19T12:24:36.245Z,28.30
2018-04-19T12:27:03.766Z,28.30
2018-04-19T12:29:31.269Z,28.70
2018-04-19T12:31:58.802Z,27.50
2018-04-19T12:34:26.278Z,28.10
2018-04-19T12:36:53.810Z,28.10
2018-04-19T12:39:21.322Z,26.90
2018-04-19T12:41:48.888Z,26.90
2018-04-19T12:44:16.401Z,27.60
2018-04-19T12:46:43.888Z,28.70
2018-04-19T12:49:11.405Z,28.00
2018-04-19T12:51:38.899Z,26.50
2018-04-19T12:54:06.413Z,26.30
2018-04-19T12:56:34.697Z,26.60
2018-04-19T12:59:02.196Z,26.50
2018-04-19T13:01:29.682Z,27.60
2018-04-19T13:03:57.199Z,26.70
2018-04-19T13:06:24.687Z,27.30
2018-04-19T13:08:52.961Z,27.20
2018-04-19T13:11:20.458Z,27.10
2018-04-19T13:13:47.981Z,27.20
2018-04-19T13:16:15.480Z,27.30
2018-04-19T13:18:43.767Z,27.10
2018-04-19T13:21:12.018Z,27.00
2018-04-19T13:23:40.301Z,28.00
2018-04-19T13:26:07.789Z,28.00
2018-04-19T13:28:35.321Z,26.90
2018-04-19T13:31:02.810Z,27.10
2018-04-19T13:33:30.367Z,27.00
2018-04-19T13:35:57.887Z,26.60
2018-04-19T13:38:25.377Z,27.00
2018-04-19T13:40:52.897Z,27.50
2018-04-19T13:43:20.382Z,27.50
2018-04-19T13:45:47.913Z,27.40
2018-04-19T13:48:16.172Z,27.20
2018-04-19T13:50:43.714Z,27.20
2018-04-19T13:53:11.214Z,27.90
2018-04-19T13:55:38.725Z,26.70
2018-04-19T13:58:06.215Z,27.10
2018-04-19T14:00:33.743Z,27.40
2018-04-19T14:03:01.989Z,27.80
2018-04-19T14:05:29.514Z,27.30
2018-04-19T14:07:59.462Z,26.80
2018-04-19T14:10:27.072Z,26.70
2018-04-19T14:12:54.578Z,27.30
2018-04-19T14:15:22.080Z,26.60
2018-04-19T14:17:49.598Z,26.90
2018-04-19T14:23:05.760Z,27.20
2018-04-19T14:25:34.013Z,26.60
2018-04-19T14:28:01.541Z,26.60
2018-04-19T14:30:29.026Z,26.80
2018-04-19T14:32:56.553Z,26.70
2018-04-19T14:35:24.041Z,26.50
2018-04-19T14:37:51.641Z,26.30
2018-04-19T14:40:19.158Z,26.60
2018-04-19T14:42:46.686Z,26.00
2018-04-19T14:45:14.258Z,26.20
2018-04-19T14:47:41.782Z,27.00
2018-04-19T14:50:09.604Z,27.50
2018-04-19T14:52:37.191Z,26.40
2018-04-19T14:55:04.676Z,26.60
2018-04-19T14:57:32.188Z,26.90
2018-04-19T14:59:59.676Z,26.80
2018-04-19T15:02:27.949Z,26.50
2018-04-19T15:04:55.431Z,26.40
2018-04-19T15:07:23.712Z,27.20
2018-04-19T15:09:51.229Z,27.20
2018-04-19T15:12:18.745Z,27.70
2018-04-19T15:14:46.231Z,26.60
2018-04-19T15:17:13.813Z,27.20
2018-04-19T15:19:41.298Z,26.80
2018-04-19T15:22:08.777Z,27.40
2018-04-19T15:24:36.302Z,26.80
2018-04-19T15:27:03.781Z,27.10
2018-04-19T15:29:32.054Z,26.90
2018-04-19T15:31:59.554Z,26.90
2018-04-19T15:34:27.869Z,26.80
2018-04-19T15:36:55.416Z,26.80
2018-04-19T15:39:23.698Z,26.30
2018-04-19T15:41:51.202Z,26.20
2018-04-19T15:44:18.725Z,26.10
2018-04-19T15:46:46.212Z,26.70
2018-04-19T15:49:13.773Z,26.90
2018-04-19T15:51:41.257Z,26.50
2018-04-19T15:54:09.547Z,26.50
2018-04-19T15:56:37.097Z,26.40
2018-04-19T15:59:04.652Z,26.20
2018-04-19T16:01:32.874Z,26.40
2018-04-19T16:04:00.397Z,26.40
2018-04-19T16:06:27.902Z,26.20
2018-04-19T16:08:55.376Z,26.50
2018-04-19T16:11:22.925Z,26.60
2018-04-19T16:13:50.425Z,27.00
2018-04-19T16:16:17.941Z,27.00
2018-04-19T16:18:45.430Z,27.50
2018-04-19T16:21:12.964Z,27.50
2018-04-19T16:23:40.543Z,27.50
2018-04-19T16:26:08.069Z,27.30
2018-04-19T16:28:35.558Z,27.30
2018-04-19T16:31:03.866Z,26.40
2018-04-19T16:33:31.385Z,26.40
2018-04-19T16:35:58.889Z,27.20
2018-04-19T16:38:27.149Z,26.60
2018-04-19T16:40:54.689Z,26.60
2018-04-19T16:43:22.173Z,26.70
2018-04-19T16:45:49.707Z,26.60
2018-04-19T16:48:17.958Z,27.30
2018-04-19T16:50:45.502Z,27.20
2018-04-19T16:53:13.007Z,26.90
2018-04-19T16:55:40.479Z,26.90
2018-04-19T16:58:08.009Z,27.00
2018-04-19T17:00:35.495Z,26.90
2018-04-19T17:03:03.013Z,27.20
2018-04-19T17:05:31.266Z,28.00
2018-04-19T17:07:58.791Z,28.00
2018-04-19T17:10:26.285Z,28.30
2018-04-19T17:12:53.805Z,28.20
2018-04-19T17:15:21.725Z,28.50
2018-04-19T17:17:49.286Z,28.50
2018-04-19T17:20:16.784Z,28.80
2018-04-19T17:22:44.452Z,28.90
2018-04-19T17:25:12.829Z,29.40
2018-04-19T17:27:40.388Z,29.30
2018-04-19T17:30:07.885Z,29.70
2018-04-19T17:32:35.402Z,29.30
2018-04-19T17:35:03.015Z,29.90
2018-04-19T17:37:30.550Z,29.30
2018-04-19T17:39:58.034Z,29.60
2018-04-19T17:42:25.527Z,30.00
2018-04-19T17:44:53.054Z,30.50
2018-04-19T17:47:20.553Z,30.80
2018-04-19T17:49:48.074Z,31.30
2018-04-19T17:52:15.566Z,31.80
2018-04-19T17:54:48.161Z,32.00
2018-04-19T17:57:15.650Z,32.10
2018-04-19T17:59:43.161Z,32.10
2018-04-19T18:02:10.682Z,32.20
2018-04-19T18:04:38.203Z,32.20
2018-04-19T18:07:05.691Z,32.50
2018-04-19T18:09:33.235Z,32.70
2018-04-19T18:12:00.737Z,33.50
2018-04-19T18:14:28.262Z,33.70
2018-04-19T18:16:56.606Z,34.50
2018-04-19T18:19:24.102Z,35.00
2018-04-19T18:21:51.630Z,34.80
2018-04-19T18:24:19.165Z,35.50
2018-04-19T18:26:46.647Z,36.10
2018-04-19T18:29:14.922Z,36.50
2018-04-19T18:31:42.453Z,36.40
2018-04-19T18:34:13.228Z,37.00
2018-04-19T18:36:40.767Z,37.10
2018-04-19T18:39:09.660Z,37.30
2018-04-19T18:41:37.229Z,37.40
2018-04-19T18:44:04.770Z,37.80
2018-04-19T18:46:32.328Z,37.80
2018-04-19T18:48:59.835Z,38.00
2018-04-19T18:51:27.344Z,38.60
2018-04-19T18:53:54.834Z,39.40
2018-04-19T18:56:22.383Z,39.80
2018-04-19T18:58:49.871Z,40.10
2018-04-19T19:01:17.379Z,40.20
2018-04-19T19:03:45.638Z,40.20
2018-04-19T19:06:13.171Z,40.20
2018-04-19T19:08:40.654Z,40.50
2018-04-19T19:11:08.180Z,40.80
2018-04-19T19:13:36.438Z,41.60
2018-04-19T19:16:11.210Z,41.60
2018-04-19T19:18:51.409Z,42.20
2018-04-19T19:21:18.946Z,42.20
2018-04-19T19:23:48.052Z,43.10
2018-04-19T19:26:16.379Z,43.30
2018-04-19T19:28:43.865Z,43.30
2018-04-19T19:31:11.389Z,43.30
2018-04-19T19:33:38.911Z,43.90
2018-04-19T19:36:06.426Z,44.20
2018-04-19T19:38:33.914Z,44.40
2018-04-19T19:41:02.194Z,44.70
2018-04-19T19:43:29.683Z,44.70
2018-04-19T19:45:57.301Z,45.00
2018-04-19T19:48:38.369Z,45.60
2018-04-19T19:51:05.989Z,46.20
2018-04-19T19:53:33.501Z,46.40
2018-04-19T19:56:01.053Z,46.70
2018-04-19T19:58:28.546Z,47.40
2018-04-19T20:00:56.044Z,47.30
2018-04-19T20:03:23.593Z,47.50
2018-04-19T20:05:51.075Z,46.80
2018-04-19T20:08:18.601Z,46.90
2018-04-19T20:10:46.105Z,46.60
2018-04-19T20:13:13.766Z,47.00
2018-04-19T20:15:41.484Z,47.80
2018-04-19T20:18:09.246Z,49.00
2018-04-19T20:20:37.571Z,50.40
2018-04-19T20:23:05.089Z,50.40
2018-04-19T20:25:32.576Z,51.00
2018-04-19T20:28:00.892Z,52.70
2018-04-19T20:30:28.378Z,52.70
2018-04-19T20:32:55.930Z,54.20
2018-04-19T20:35:23.417Z,55.40
2018-04-19T20:37:50.937Z,56.50
2018-04-19T20:40:19.186Z,58.60
2018-04-19T20:42:46.719Z,58.50
2018-04-19T20:45:14.202Z,59.80
2018-04-19T20:47:41.718Z,61.80
2018-04-19T20:50:09.991Z,66.20
2018-04-19T20:52:37.526Z,66.10
2018-04-19T20:55:05.014Z,67.60
2018-04-19T20:57:32.588Z,69.00
2018-04-19T21:00:00.069Z,70.30
2018-04-19T21:02:27.546Z,71.40
2018-04-19T21:04:55.063Z,72.60
2018-04-19T21:07:22.552Z,73.50
2018-04-19T21:09:50.077Z,74.30
2018-04-19T21:12:18.362Z,76.50
2018-04-19T21:14:45.913Z,76.30
2018-04-19T21:17:13.450Z,77.20
2018-04-19T21:19:40.961Z,77.70
2018-04-19T21:22:08.445Z,78.50
2018-04-19T21:24:35.997Z,78.90
2018-04-19T21:27:03.482Z,79.60
2018-04-19T21:29:30.994Z,80.10
2018-04-19T21:31:58.513Z,80.90
2018-04-19T21:34:26.069Z,81.00
2018-04-19T21:36:53.553Z,81.60
2018-04-19T21:39:21.104Z,81.70
2018-04-19T21:41:48.595Z,82.10
2018-04-19T21:44:16.097Z,82.90
2018-04-19T21:46:44.389Z,83.80
2018-04-19T21:49:11.892Z,83.70
2018-04-19T21:51:39.415Z,84.70
2018-04-19T21:54:06.924Z,84.10
2018-04-19T21:56:34.578Z,84.50
2018-04-19T21:59:02.076Z,84.50
2018-04-19T22:01:29.653Z,85.10
2018-04-19T22:03:57.134Z,84.80
2018-04-19T22:06:24.650Z,85.50
2018-04-19T22:08:52.210Z,85.70
2018-04-19T22:11:19.679Z,86.00
2018-04-19T22:13:48.028Z,86.30
2018-04-19T22:16:15.541Z,86.50
2018-04-19T22:18:43.039Z,87.00
2018-04-19T22:21:11.329Z,86.10
2018-04-19T22:23:39.609Z,85.40
2018-04-19T22:26:07.203Z,85.40
2018-04-19T22:28:34.690Z,84.90
2018-04-19T22:31:02.192Z,84.70
2018-04-19T22:33:31.530Z,84.40
2018-04-19T22:35:59.078Z,84.40
2018-04-19T22:38:26.589Z,84.10
2018-04-19T22:40:54.874Z,83.20
2018-04-19T22:43:22.393Z,83.20
2018-04-19T22:45:49.887Z,82.60
2018-04-19T22:48:17.451Z,82.50
2018-04-19T22:50:44.946Z,81.80
2018-04-19T22:53:12.461Z,81.00
2018-04-19T22:55:39.958Z,81.00
2018-04-19T22:58:07.494Z,80.10
2018-04-19T23:00:34.985Z,78.70
2018-04-19T23:03:02.498Z,76.60
2018-04-19T23:05:30.771Z,75.00
2018-04-19T23:07:58.322Z,75.00
2018-04-19T23:10:25.827Z,74.60
2018-04-19T23:12:53.366Z,74.90
2018-04-19T23:15:20.847Z,75.60
2018-04-19T23:17:48.374Z,75.90
2018-04-19T23:20:15.864Z,76.80
2018-04-19T23:22:43.359Z,77.60
2018-04-19T23:25:10.878Z,79.10
2018-04-19T23:27:38.366Z,80.00
2018-04-19T23:30:05.882Z,81.00
2018-04-19T23:32:33.367Z,81.30
2018-04-19T23:35:00.886Z,81.70
2018-04-19T23:37:28.365Z,82.00
2018-04-19T23:39:55.881Z,81.70
2018-04-19T23:42:23.368Z,81.30
2018-04-19T23:44:50.917Z,81.50
2018-04-19T23:47:18.405Z,81.90
2018-04-19T23:49:45.925Z,82.40
2018-04-19T23:52:13.452Z,82.20
2018-04-19T23:54:41.403Z,82.30
2018-04-19T23:57:08.886Z,81.90
2018-04-19T23:59:36.440Z,81.40
